sensor_id;sensor_type;location;lat;lon;timestamp;temperature;humidity
42841;DHT22;28491;46.898;7.660;2023-05-10T00:01:28;12.40;99.00
42841;DHT22;28491;46.898;7.660;2023-05-10T00:03:54;12.40;99.20
42841;DHT22;28491;46.898;7.660;2023-05-10T00:06:19;12.40;99.20
42841;DHT22;28491;46.898;7.660;2023-05-10T00:08:45;12.30;98.90
42841;DHT22;28491;46.898;7.660;2023-05-10T00:11:11;12.40;99.20
42841;DHT22;28491;46.898;7.660;2023-05-10T00:13:36;12.30;99.00
42841;DHT22;28491;46.898;7.660;2023-05-10T00:16:02;12.30;99.30
42841;DHT22;28491;46.898;7.660;2023-05-10T00:18:27;12.30;99.30
42841;DHT22;28491;46.898;7.660;2023-05-10T00:20:53;12.30;99.40
42841;DHT22;28491;46.898;7.660;2023-05-10T00:23:18;12.30;99.20
42841;DHT22;28491;46.898;7.660;2023-05-10T00:25:44;12.30;99.30
42841;DHT22;28491;46.898;7.660;2023-05-10T00:28:09;12.20;99.20
42841;DHT22;28491;46.898;7.660;2023-05-10T00:30:35;12.20;99.50
42841;DHT22;28491;46.898;7.660;2023-05-10T00:33:00;12.20;99.80
42841;DHT22;28491;46.898;7.660;2023-05-10T00:35:26;12.30;99.70
42841;DHT22;28491;46.898;7.660;2023-05-10T00:37:52;12.30;99.60
42841;DHT22;28491;46.898;7.660;2023-05-10T00:40:17;12.20;99.80
42841;DHT22;28491;46.898;7.660;2023-05-10T00:42:43;12.20;99.80
42841;DHT22;28491;46.898;7.660;2023-05-10T00:45:08;12.20;99.70
42841;DHT22;28491;46.898;7.660;2023-05-10T00:47:34;12.20;99.60
42841;DHT22;28491;46.898;7.660;2023-05-10T00:50:00;12.20;99.60
42841;DHT22;28491;46.898;7.660;2023-05-10T00:52:27;12.20;99.70
42841;DHT22;28491;46.898;7.660;2023-05-10T00:54:54;12.20;98.90
42841;DHT22;28491;46.898;7.660;2023-05-10T00:57:19;12.10;99.00
42841;DHT22;28491;46.898;7.660;2023-05-10T00:59:46;12.10;99.30
42841;DHT22;28491;46.898;7.660;2023-05-10T01:02:12;12.10;99.30
42841;DHT22;28491;46.898;7.660;2023-05-10T01:04:38;12.00;98.90
42841;DHT22;28491;46.898;7.660;2023-05-10T01:07:04;11.90;99.20
42841;DHT22;28491;46.898;7.660;2023-05-10T01:09:30;11.90;99.30
42841;DHT22;28491;46.898;7.660;2023-05-10T01:11:56;11.90;99.40
42841;DHT22;28491;46.898;7.660;2023-05-10T01:14:22;12.00;99.80
42841;DHT22;28491;46.898;7.660;2023-05-10T01:16:49;11.90;99.60
42841;DHT22;28491;46.898;7.660;2023-05-10T01:19:24;12.00;99.40
42841;DHT22;28491;46.898;7.660;2023-05-10T01:33:11;11.90;99.30
42841;DHT22;28491;46.898;7.660;2023-05-10T01:35:43;11.90;99.00
42841;DHT22;28491;46.898;7.660;2023-05-10T01:38:32;11.80;99.30
42841;DHT22;28491;46.898;7.660;2023-05-10T01:41:25;11.90;99.50
42841;DHT22;28491;46.898;7.660;2023-05-10T01:46:48;11.90;98.90
42841;DHT22;28491;46.898;7.660;2023-05-10T01:49:23;11.90;99.00
42841;DHT22;28491;46.898;7.660;2023-05-10T01:51:52;11.80;99.30
42841;DHT22;28491;46.898;7.660;2023-05-10T01:54:21;11.80;99.20
42841;DHT22;28491;46.898;7.660;2023-05-10T01:56:55;11.80;99.50
42841;DHT22;28491;46.898;7.660;2023-05-10T01:59:23;11.70;99.20
42841;DHT22;28491;46.898;7.660;2023-05-10T02:01:52;11.80;99.10
42841;DHT22;28491;46.898;7.660;2023-05-10T02:04:19;11.70;99.00
42841;DHT22;28491;46.898;7.660;2023-05-10T02:06:47;11.70;99.20
42841;DHT22;28491;46.898;7.660;2023-05-10T02:09:14;11.60;98.90
42841;DHT22;28491;46.898;7.660;2023-05-10T02:11:42;11.70;98.60
42841;DHT22;28491;46.898;7.660;2023-05-10T02:14:09;11.70;97.70
42841;DHT22;28491;46.898;7.660;2023-05-10T02:16:38;11.60;97.50
42841;DHT22;28491;46.898;7.660;2023-05-10T02:19:05;11.60;97.40
42841;DHT22;28491;46.898;7.660;2023-05-10T02:21:32;11.70;97.40
42841;DHT22;28491;46.898;7.660;2023-05-10T02:23:59;11.70;96.40
42841;DHT22;28491;46.898;7.660;2023-05-10T02:26:26;11.70;95.10
42841;DHT22;28491;46.898;7.660;2023-05-10T02:28:53;11.60;96.20
42841;DHT22;28491;46.898;7.660;2023-05-10T02:31:19;11.60;97.10
42841;DHT22;28491;46.898;7.660;2023-05-10T02:33:46;11.50;98.20
42841;DHT22;28491;46.898;7.660;2023-05-10T02:36:12;11.50;98.70
42841;DHT22;28491;46.898;7.660;2023-05-10T02:38:39;11.40;98.90
42841;DHT22;28491;46.898;7.660;2023-05-10T02:41:06;11.50;99.60
42841;DHT22;28491;46.898;7.660;2023-05-10T02:43:33;11.50;99.60
42841;DHT22;28491;46.898;7.660;2023-05-10T02:45:59;11.40;99.10
42841;DHT22;28491;46.898;7.660;2023-05-10T02:48:24;11.40;99.20
42841;DHT22;28491;46.898;7.660;2023-05-10T02:50:52;11.40;99.60
42841;DHT22;28491;46.898;7.660;2023-05-10T02:53:22;11.40;99.60
42841;DHT22;28491;46.898;7.660;2023-05-10T02:55:51;11.30;99.40
42841;DHT22;28491;46.898;7.660;2023-05-10T02:58:17;11.40;99.10
42841;DHT22;28491;46.898;7.660;2023-05-10T03:00:44;11.40;99.50
42841;DHT22;28491;46.898;7.660;2023-05-10T03:03:10;11.30;99.30
42841;DHT22;28491;46.898;7.660;2023-05-10T03:05:36;11.40;99.50
42841;DHT22;28491;46.898;7.660;2023-05-10T03:08:02;11.40;99.20
42841;DHT22;28491;46.898;7.660;2023-05-10T03:10:30;11.40;99.60
42841;DHT22;28491;46.898;7.660;2023-05-10T03:13:06;11.30;99.00
42841;DHT22;28491;46.898;7.660;2023-05-10T03:18:40;11.40;99.80
42841;DHT22;28491;46.898;7.660;2023-05-10T03:21:07;11.50;99.60
42841;DHT22;28491;46.898;7.660;2023-05-10T03:23:43;11.60;97.50
42841;DHT22;28491;46.898;7.660;2023-05-10T03:26:08;11.50;92.30
42841;DHT22;28491;46.898;7.660;2023-05-10T03:28:35;11.50;87.70
42841;DHT22;28491;46.898;7.660;2023-05-10T03:31:04;11.40;83.70
42841;DHT22;28491;46.898;7.660;2023-05-10T03:33:31;11.40;85.80
42841;DHT22;28491;46.898;7.660;2023-05-10T03:35:57;11.40;85.00
42841;DHT22;28491;46.898;7.660;2023-05-10T03:38:23;11.40;81.10
42841;DHT22;28491;46.898;7.660;2023-05-10T03:40:48;11.40;83.10
42841;DHT22;28491;46.898;7.660;2023-05-10T03:43:14;11.40;85.70
42841;DHT22;28491;46.898;7.660;2023-05-10T03:45:40;11.40;87.40
42841;DHT22;28491;46.898;7.660;2023-05-10T03:48:05;11.30;91.00
42841;DHT22;28491;46.898;7.660;2023-05-10T03:50:31;11.40;93.20
42841;DHT22;28491;46.898;7.660;2023-05-10T03:52:56;11.30;94.50
42841;DHT22;28491;46.898;7.660;2023-05-10T03:55:23;11.30;95.00
42841;DHT22;28491;46.898;7.660;2023-05-10T03:57:48;11.30;95.70
42841;DHT22;28491;46.898;7.660;2023-05-10T04:00:15;11.20;95.70
42841;DHT22;28491;46.898;7.660;2023-05-10T04:02:40;11.30;96.50
42841;DHT22;28491;46.898;7.660;2023-05-10T04:05:06;11.10;96.00
42841;DHT22;28491;46.898;7.660;2023-05-10T04:07:32;11.20;97.00
42841;DHT22;28491;46.898;7.660;2023-05-10T04:09:57;11.10;97.10
42841;DHT22;28491;46.898;7.660;2023-05-10T04:12:23;11.10;97.00
42841;DHT22;28491;46.898;7.660;2023-05-10T04:14:49;11.20;97.00
42841;DHT22;28491;46.898;7.660;2023-05-10T04:17:14;11.20;95.90
42841;DHT22;28491;46.898;7.660;2023-05-10T04:19:40;11.10;95.00
42841;DHT22;28491;46.898;7.660;2023-05-10T04:22:05;11.10;95.20
42841;DHT22;28491;46.898;7.660;2023-05-10T04:24:31;11.00;96.10
42841;DHT22;28491;46.898;7.660;2023-05-10T04:26:56;11.00;97.30
42841;DHT22;28491;46.898;7.660;2023-05-10T04:29:22;11.10;97.70
42841;DHT22;28491;46.898;7.660;2023-05-10T04:31:47;11.10;98.10
42841;DHT22;28491;46.898;7.660;2023-05-10T04:34:14;11.10;98.10
42841;DHT22;28491;46.898;7.660;2023-05-10T04:36:39;11.00;98.00
42841;DHT22;28491;46.898;7.660;2023-05-10T04:39:05;11.00;98.50
42841;DHT22;28491;46.898;7.660;2023-05-10T04:41:30;11.00;99.20
42841;DHT22;28491;46.898;7.660;2023-05-10T04:43:56;11.10;99.30
42841;DHT22;28491;46.898;7.660;2023-05-10T04:46:22;11.00;99.00
42841;DHT22;28491;46.898;7.660;2023-05-10T04:48:47;11.10;99.20
42841;DHT22;28491;46.898;7.660;2023-05-10T04:51:13;11.10;99.30
42841;DHT22;28491;46.898;7.660;2023-05-10T04:53:38;11.00;99.40
42841;DHT22;28491;46.898;7.660;2023-05-10T04:56:04;11.10;99.40
42841;DHT22;28491;46.898;7.660;2023-05-10T04:58:30;11.10;99.50
42841;DHT22;28491;46.898;7.660;2023-05-10T05:00:56;11.10;99.80
42841;DHT22;28491;46.898;7.660;2023-05-10T05:03:21;11.10;99.40
42841;DHT22;28491;46.898;7.660;2023-05-10T05:05:47;11.20;99.40
42841;DHT22;28491;46.898;7.660;2023-05-10T05:08:13;11.20;99.00
42841;DHT22;28491;46.898;7.660;2023-05-10T05:10:38;11.20;98.70
42841;DHT22;28491;46.898;7.660;2023-05-10T05:13:04;11.30;97.70
42841;DHT22;28491;46.898;7.660;2023-05-10T05:15:29;11.20;97.60
42841;DHT22;28491;46.898;7.660;2023-05-10T05:17:55;11.30;97.00
42841;DHT22;28491;46.898;7.660;2023-05-10T05:20:21;11.30;95.60
42841;DHT22;28491;46.898;7.660;2023-05-10T05:22:46;11.40;94.90
42841;DHT22;28491;46.898;7.660;2023-05-10T05:25:12;11.30;93.40
42841;DHT22;28491;46.898;7.660;2023-05-10T05:27:38;11.30;94.70
42841;DHT22;28491;46.898;7.660;2023-05-10T05:30:04;11.30;94.60
42841;DHT22;28491;46.898;7.660;2023-05-10T05:32:29;11.30;95.20
42841;DHT22;28491;46.898;7.660;2023-05-10T05:34:55;11.30;95.40
42841;DHT22;28491;46.898;7.660;2023-05-10T05:37:21;11.40;93.70
42841;DHT22;28491;46.898;7.660;2023-05-10T05:39:48;11.30;91.10
42841;DHT22;28491;46.898;7.660;2023-05-10T05:42:14;11.30;85.00
42841;DHT22;28491;46.898;7.660;2023-05-10T05:44:41;11.30;81.60
42841;DHT22;28491;46.898;7.660;2023-05-10T05:47:07;11.30;81.70
42841;DHT22;28491;46.898;7.660;2023-05-10T05:49:32;11.20;79.50
42841;DHT22;28491;46.898;7.660;2023-05-10T05:51:59;11.20;78.30
42841;DHT22;28491;46.898;7.660;2023-05-10T05:54:26;11.20;79.00
42841;DHT22;28491;46.898;7.660;2023-05-10T05:56:54;11.10;80.10
42841;DHT22;28491;46.898;7.660;2023-05-10T05:59:20;11.10;83.30
42841;DHT22;28491;46.898;7.660;2023-05-10T06:01:46;11.10;86.40
42841;DHT22;28491;46.898;7.660;2023-05-10T06:04:11;11.10;82.80
42841;DHT22;28491;46.898;7.660;2023-05-10T06:06:37;11.20;80.40
42841;DHT22;28491;46.898;7.660;2023-05-10T06:09:03;11.20;78.70
42841;DHT22;28491;46.898;7.660;2023-05-10T06:11:28;11.20;78.40
42841;DHT22;28491;46.898;7.660;2023-05-10T06:13:54;11.20;76.40
42841;DHT22;28491;46.898;7.660;2023-05-10T06:16:19;11.20;76.90
42841;DHT22;28491;46.898;7.660;2023-05-10T06:18:45;11.20;75.60
42841;DHT22;28491;46.898;7.660;2023-05-10T06:21:10;11.10;76.30
42841;DHT22;28491;46.898;7.660;2023-05-10T06:23:36;11.10;79.80
42841;DHT22;28491;46.898;7.660;2023-05-10T06:26:02;11.10;81.80
42841;DHT22;28491;46.898;7.660;2023-05-10T06:28:27;11.10;84.40
42841;DHT22;28491;46.898;7.660;2023-05-10T06:30:53;11.10;86.70
42841;DHT22;28491;46.898;7.660;2023-05-10T06:33:18;11.10;89.40
42841;DHT22;28491;46.898;7.660;2023-05-10T06:35:44;11.10;85.60
42841;DHT22;28491;46.898;7.660;2023-05-10T06:38:09;11.00;81.10
42841;DHT22;28491;46.898;7.660;2023-05-10T06:40:35;11.00;80.70
42841;DHT22;28491;46.898;7.660;2023-05-10T06:43:01;11.00;82.20
42841;DHT22;28491;46.898;7.660;2023-05-10T06:45:26;11.10;83.10
42841;DHT22;28491;46.898;7.660;2023-05-10T06:47:52;11.10;80.30
42841;DHT22;28491;46.898;7.660;2023-05-10T06:50:18;11.10;80.90
42841;DHT22;28491;46.898;7.660;2023-05-10T06:52:43;11.20;80.90
42841;DHT22;28491;46.898;7.660;2023-05-10T06:55:09;11.20;82.50
42841;DHT22;28491;46.898;7.660;2023-05-10T06:57:35;11.20;85.80
42841;DHT22;28491;46.898;7.660;2023-05-10T07:00:02;11.20;85.90
42841;DHT22;28491;46.898;7.660;2023-05-10T07:02:29;11.20;87.60
42841;DHT22;28491;46.898;7.660;2023-05-10T07:04:54;11.20;87.60
42841;DHT22;28491;46.898;7.660;2023-05-10T07:07:20;11.30;89.00
42841;DHT22;28491;46.898;7.660;2023-05-10T07:09:46;11.40;88.40
42841;DHT22;28491;46.898;7.660;2023-05-10T07:12:11;11.50;87.80
42841;DHT22;28491;46.898;7.660;2023-05-10T07:14:37;11.60;85.30
42841;DHT22;28491;46.898;7.660;2023-05-10T07:17:03;11.80;85.00
42841;DHT22;28491;46.898;7.660;2023-05-10T07:19:28;12.00;82.90
42841;DHT22;28491;46.898;7.660;2023-05-10T07:21:55;12.10;75.40
42841;DHT22;28491;46.898;7.660;2023-05-10T07:24:20;12.30;73.20
42841;DHT22;28491;46.898;7.660;2023-05-10T07:26:46;12.50;73.50
42841;DHT22;28491;46.898;7.660;2023-05-10T07:29:11;12.60;71.40
42841;DHT22;28491;46.898;7.660;2023-05-10T07:31:37;12.50;69.20
42841;DHT22;28491;46.898;7.660;2023-05-10T07:34:02;12.60;69.10
42841;DHT22;28491;46.898;7.660;2023-05-10T07:36:28;12.50;66.40
42841;DHT22;28491;46.898;7.660;2023-05-10T07:38:54;12.50;66.20
42841;DHT22;28491;46.898;7.660;2023-05-10T07:41:19;12.40;65.60
42841;DHT22;28491;46.898;7.660;2023-05-10T07:43:46;12.20;65.20
42841;DHT22;28491;46.898;7.660;2023-05-10T07:46:11;12.20;67.70
42841;DHT22;28491;46.898;7.660;2023-05-10T07:48:37;12.10;70.20
42841;DHT22;28491;46.898;7.660;2023-05-10T07:51:03;12.00;72.10
42841;DHT22;28491;46.898;7.660;2023-05-10T07:53:28;12.00;72.90
42841;DHT22;28491;46.898;7.660;2023-05-10T07:55:57;11.90;73.70
42841;DHT22;28491;46.898;7.660;2023-05-10T07:58:23;11.90;74.50
42841;DHT22;28491;46.898;7.660;2023-05-10T08:00:49;11.90;72.80
42841;DHT22;28491;46.898;7.660;2023-05-10T08:03:15;11.90;75.50
42841;DHT22;28491;46.898;7.660;2023-05-10T08:05:40;12.00;75.80
42841;DHT22;28491;46.898;7.660;2023-05-10T08:08:06;12.10;76.20
42841;DHT22;28491;46.898;7.660;2023-05-10T08:10:32;12.20;76.10
42841;DHT22;28491;46.898;7.660;2023-05-10T08:12:58;12.30;74.40
42841;DHT22;28491;46.898;7.660;2023-05-10T08:15:24;12.50;74.70
42841;DHT22;28491;46.898;7.660;2023-05-10T08:17:51;12.60;72.40
42841;DHT22;28491;46.898;7.660;2023-05-10T08:20:16;12.70;66.50
42841;DHT22;28491;46.898;7.660;2023-05-10T08:22:47;12.70;66.20
42841;DHT22;28491;46.898;7.660;2023-05-10T08:25:12;12.70;63.40
42841;DHT22;28491;46.898;7.660;2023-05-10T08:27:38;12.80;64.20
42841;DHT22;28491;46.898;7.660;2023-05-10T08:30:04;12.90;65.10
42841;DHT22;28491;46.898;7.660;2023-05-10T08:32:29;12.80;63.40
42841;DHT22;28491;46.898;7.660;2023-05-10T08:34:55;12.70;63.10
42841;DHT22;28491;46.898;7.660;2023-05-10T08:37:23;12.80;65.30
42841;DHT22;28491;46.898;7.660;2023-05-10T08:39:49;12.80;64.00
42841;DHT22;28491;46.898;7.660;2023-05-10T08:42:18;12.90;65.10
42841;DHT22;28491;46.898;7.660;2023-05-10T08:44:47;12.90;62.90
42841;DHT22;28491;46.898;7.660;2023-05-10T08:47:16;12.80;61.30
42841;DHT22;28491;46.898;7.660;2023-05-10T08:49:44;12.50;63.00
42841;DHT22;28491;46.898;7.660;2023-05-10T08:52:13;12.20;63.20
42841;DHT22;28491;46.898;7.660;2023-05-10T08:54:40;11.90;65.70
42841;DHT22;28491;46.898;7.660;2023-05-10T08:57:06;11.70;69.30
42841;DHT22;28491;46.898;7.660;2023-05-10T08:59:32;11.70;70.50
42841;DHT22;28491;46.898;7.660;2023-05-10T09:01:58;11.60;70.40
42841;DHT22;28491;46.898;7.660;2023-05-10T09:04:24;11.60;71.60
42841;DHT22;28491;46.898;7.660;2023-05-10T09:06:50;11.50;73.20
42841;DHT22;28491;46.898;7.660;2023-05-10T09:09:17;11.50;73.50
42841;DHT22;28491;46.898;7.660;2023-05-10T09:11:43;11.60;69.40
42841;DHT22;28491;46.898;7.660;2023-05-10T09:14:10;11.70;70.20
42841;DHT22;28491;46.898;7.660;2023-05-10T09:16:37;11.70;67.30
42841;DHT22;28491;46.898;7.660;2023-05-10T09:19:03;11.80;69.70
42841;DHT22;28491;46.898;7.660;2023-05-10T09:21:29;11.80;70.10
42841;DHT22;28491;46.898;7.660;2023-05-10T09:23:55;11.90;75.00
42841;DHT22;28491;46.898;7.660;2023-05-10T09:26:24;11.80;65.40
42841;DHT22;28491;46.898;7.660;2023-05-10T09:28:54;11.60;62.20
42841;DHT22;28491;46.898;7.660;2023-05-10T09:31:21;11.60;61.10
42841;DHT22;28491;46.898;7.660;2023-05-10T09:33:48;11.70;65.80
42841;DHT22;28491;46.898;7.660;2023-05-10T09:36:14;11.70;67.70
42841;DHT22;28491;46.898;7.660;2023-05-10T09:38:47;11.70;68.90
42841;DHT22;28491;46.898;7.660;2023-05-10T09:41:19;11.80;69.90
42841;DHT22;28491;46.898;7.660;2023-05-10T09:43:46;11.90;69.50
42841;DHT22;28491;46.898;7.660;2023-05-10T09:46:11;12.10;66.50
42841;DHT22;28491;46.898;7.660;2023-05-10T09:48:44;12.40;62.90
42841;DHT22;28491;46.898;7.660;2023-05-10T09:51:10;12.80;56.20
42841;DHT22;28491;46.898;7.660;2023-05-10T09:53:36;13.00;43.50
42841;DHT22;28491;46.898;7.660;2023-05-10T09:56:02;13.10;47.60
42841;DHT22;28491;46.898;7.660;2023-05-10T09:58:27;13.20;60.40
42841;DHT22;28491;46.898;7.660;2023-05-10T10:00:53;13.30;48.80
42841;DHT22;28491;46.898;7.660;2023-05-10T10:03:21;13.30;60.80
42841;DHT22;28491;46.898;7.660;2023-05-10T10:05:47;13.10;37.90
42841;DHT22;28491;46.898;7.660;2023-05-10T10:08:14;13.20;63.80
42841;DHT22;28491;46.898;7.660;2023-05-10T10:10:40;13.20;63.10
42841;DHT22;28491;46.898;7.660;2023-05-10T10:13:07;13.20;64.20
42841;DHT22;28491;46.898;7.660;2023-05-10T10:15:34;13.30;61.20
42841;DHT22;28491;46.898;7.660;2023-05-10T10:18:00;13.30;60.80
42841;DHT22;28491;46.898;7.660;2023-05-10T10:20:26;13.20;63.40
42841;DHT22;28491;46.898;7.660;2023-05-10T10:22:52;13.30;37.40
42841;DHT22;28491;46.898;7.660;2023-05-10T10:25:20;13.10;54.40
42841;DHT22;28491;46.898;7.660;2023-05-10T10:35:29;13.00;51.60
42841;DHT22;28491;46.898;7.660;2023-05-10T10:37:56;13.00;59.00
42841;DHT22;28491;46.898;7.660;2023-05-10T10:40:32;13.00;53.60
42841;DHT22;28491;46.898;7.660;2023-05-10T10:42:58;13.10;61.10
42841;DHT22;28491;46.898;7.660;2023-05-10T10:45:43;13.30;61.00
42841;DHT22;28491;46.898;7.660;2023-05-10T10:48:22;13.80;58.20
42841;DHT22;28491;46.898;7.660;2023-05-10T10:50:56;14.10;43.90
42841;DHT22;28491;46.898;7.660;2023-05-10T10:53:21;14.20;28.00
42841;DHT22;28491;46.898;7.660;2023-05-10T10:55:47;14.30;13.20
42841;DHT22;28491;46.898;7.660;2023-05-10T10:58:32;14.60;16.30
42841;DHT22;28491;46.898;7.660;2023-05-10T11:01:23;14.70;1.00
42841;DHT22;28491;46.898;7.660;2023-05-10T11:06:33;14.90;1.00
42841;DHT22;28491;46.898;7.660;2023-05-10T11:09:04;14.70;1.00
42841;DHT22;28491;46.898;7.660;2023-05-10T11:11:31;14.40;2.60
42841;DHT22;28491;46.898;7.660;2023-05-10T11:14:03;14.00;20.10
42841;DHT22;28491;46.898;7.660;2023-05-10T11:16:40;13.90;15.60
42841;DHT22;28491;46.898;7.660;2023-05-10T11:19:14;13.80;25.00
42841;DHT22;28491;46.898;7.660;2023-05-10T11:24:30;13.50;9.70
42841;DHT22;28491;46.898;7.660;2023-05-10T11:26:56;13.40;8.30
42841;DHT22;28491;46.898;7.660;2023-05-10T11:29:22;13.40;11.40
42841;DHT22;28491;46.898;7.660;2023-05-10T11:31:48;13.80;20.30
42841;DHT22;28491;46.898;7.660;2023-05-10T11:34:25;14.10;10.60
42841;DHT22;28491;46.898;7.660;2023-05-10T11:36:52;14.40;1.00
42841;DHT22;28491;46.898;7.660;2023-05-10T11:39:19;14.60;2.10
42841;DHT22;28491;46.898;7.660;2023-05-10T11:41:48;14.80;1.00
42841;DHT22;28491;46.898;7.660;2023-05-10T11:44:13;14.90;1.00
42841;DHT22;28491;46.898;7.660;2023-05-10T11:46:39;14.90;1.00
42841;DHT22;28491;46.898;7.660;2023-05-10T11:49:07;14.80;1.00
42841;DHT22;28491;46.898;7.660;2023-05-10T11:51:36;14.70;1.00
42841;DHT22;28491;46.898;7.660;2023-05-10T11:54:09;14.40;1.00
42841;DHT22;28491;46.898;7.660;2023-05-10T11:56:35;14.50;5.80
42841;DHT22;28491;46.898;7.660;2023-05-10T11:59:00;14.60;8.60
42841;DHT22;28491;46.898;7.660;2023-05-10T12:01:28;14.60;6.60
42841;DHT22;28491;46.898;7.660;2023-05-10T12:03:55;14.70;1.00
42841;DHT22;28491;46.898;7.660;2023-05-10T12:06:26;14.80;1.00
42841;DHT22;28491;46.898;7.660;2023-05-10T12:08:52;14.80;1.00
42841;DHT22;28491;46.898;7.660;2023-05-10T12:11:19;14.70;1.00
42841;DHT22;28491;46.898;7.660;2023-05-10T12:13:46;14.50;1.00
42841;DHT22;28491;46.898;7.660;2023-05-10T12:16:16;14.70;1.00
42841;DHT22;28491;46.898;7.660;2023-05-10T12:18:42;15.00;8.60
42841;DHT22;28491;46.898;7.660;2023-05-10T12:21:10;15.10;1.00
42841;DHT22;28491;46.898;7.660;2023-05-10T12:23:36;15.20;1.00
42841;DHT22;28491;46.898;7.660;2023-05-10T12:26:03;15.20;1.00
42841;DHT22;28491;46.898;7.660;2023-05-10T12:28:32;15.20;1.00
42841;DHT22;28491;46.898;7.660;2023-05-10T12:30:59;15.00;1.00
42841;DHT22;28491;46.898;7.660;2023-05-10T12:33:25;15.10;1.00
42841;DHT22;28491;46.898;7.660;2023-05-10T12:35:53;15.30;1.00
42841;DHT22;28491;46.898;7.660;2023-05-10T12:38:29;16.00;1.00
42841;DHT22;28491;46.898;7.660;2023-05-10T12:41:00;16.50;1.00
42841;DHT22;28491;46.898;7.660;2023-05-10T12:43:26;16.80;1.00
42841;DHT22;28491;46.898;7.660;2023-05-10T12:45:52;16.60;1.00
42841;DHT22;28491;46.898;7.660;2023-05-10T12:48:18;16.40;1.00
42841;DHT22;28491;46.898;7.660;2023-05-10T12:50:43;16.20;1.00
42841;DHT22;28491;46.898;7.660;2023-05-10T12:53:09;16.00;1.00
42841;DHT22;28491;46.898;7.660;2023-05-10T12:55:34;16.10;1.00
42841;DHT22;28491;46.898;7.660;2023-05-10T12:58:00;16.20;1.00
42841;DHT22;28491;46.898;7.660;2023-05-10T13:00:25;15.90;1.00
42841;DHT22;28491;46.898;7.660;2023-05-10T13:02:51;15.70;1.00
42841;DHT22;28491;46.898;7.660;2023-05-10T13:05:16;15.60;1.00
42841;DHT22;28491;46.898;7.660;2023-05-10T13:07:42;15.60;1.00
42841;DHT22;28491;46.898;7.660;2023-05-10T13:10:09;15.80;1.00
42841;DHT22;28491;46.898;7.660;2023-05-10T13:12:34;16.00;1.00
42841;DHT22;28491;46.898;7.660;2023-05-10T13:15:00;16.10;1.00
42841;DHT22;28491;46.898;7.660;2023-05-10T13:17:26;16.00;1.00
42841;DHT22;28491;46.898;7.660;2023-05-10T13:19:51;15.70;1.00
42841;DHT22;28491;46.898;7.660;2023-05-10T13:22:17;15.50;1.00
42841;DHT22;28491;46.898;7.660;2023-05-10T13:24:43;15.40;1.00
42841;DHT22;28491;46.898;7.660;2023-05-10T13:27:08;15.50;1.00
42841;DHT22;28491;46.898;7.660;2023-05-10T13:29:34;15.40;1.00
42841;DHT22;28491;46.898;7.660;2023-05-10T13:32:00;15.40;1.00
42841;DHT22;28491;46.898;7.660;2023-05-10T13:34:25;15.00;1.00
42841;DHT22;28491;46.898;7.660;2023-05-10T13:36:51;14.20;1.00
42841;DHT22;28491;46.898;7.660;2023-05-10T13:39:18;13.60;1.00
42841;DHT22;28491;46.898;7.660;2023-05-10T13:41:43;13.10;9.80
42841;DHT22;28491;46.898;7.660;2023-05-10T13:44:11;12.80;21.70
42841;DHT22;28491;46.898;7.660;2023-05-10T13:46:37;12.50;36.30
42841;DHT22;28491;46.898;7.660;2023-05-10T13:49:03;12.40;48.70
42841;DHT22;28491;46.898;7.660;2023-05-10T13:51:29;12.20;61.50
42841;DHT22;28491;46.898;7.660;2023-05-10T13:53:54;12.20;62.10
42841;DHT22;28491;46.898;7.660;2023-05-10T13:56:20;12.40;64.10
42841;DHT22;28491;46.898;7.660;2023-05-10T13:58:45;12.60;63.70
42841;DHT22;28491;46.898;7.660;2023-05-10T14:01:11;13.00;65.00
42841;DHT22;28491;46.898;7.660;2023-05-10T14:03:37;13.60;69.70
42841;DHT22;28491;46.898;7.660;2023-05-10T14:06:03;14.00;61.30
42841;DHT22;28491;46.898;7.660;2023-05-10T14:08:28;14.20;54.10
42841;DHT22;28491;46.898;7.660;2023-05-10T14:10:54;14.30;38.50
42841;DHT22;28491;46.898;7.660;2023-05-10T14:13:21;14.30;35.80
42841;DHT22;28491;46.898;7.660;2023-05-10T14:15:47;14.60;47.10
42841;DHT22;28491;46.898;7.660;2023-05-10T14:18:12;14.60;23.80
42841;DHT22;28491;46.898;7.660;2023-05-10T14:20:38;14.50;10.00
42841;DHT22;28491;46.898;7.660;2023-05-10T14:23:03;14.40;17.80
42841;DHT22;28491;46.898;7.660;2023-05-10T14:25:29;14.30;7.30
42841;DHT22;28491;46.898;7.660;2023-05-10T14:27:54;14.40;14.30
42841;DHT22;28491;46.898;7.660;2023-05-10T14:30:20;14.60;3.50
42841;DHT22;28491;46.898;7.660;2023-05-10T14:32:46;14.60;1.90
42841;DHT22;28491;46.898;7.660;2023-05-10T14:35:11;14.50;3.70
42841;DHT22;28491;46.898;7.660;2023-05-10T14:37:38;14.40;7.90
42841;DHT22;28491;46.898;7.660;2023-05-10T14:40:04;14.40;5.50
42841;DHT22;28491;46.898;7.660;2023-05-10T14:42:30;14.40;1.00
42841;DHT22;28491;46.898;7.660;2023-05-10T14:44:56;14.20;1.00
42841;DHT22;28491;46.898;7.660;2023-05-10T14:47:22;14.10;1.00
42841;DHT22;28491;46.898;7.660;2023-05-10T14:49:47;14.10;1.00
42841;DHT22;28491;46.898;7.660;2023-05-10T14:52:13;14.30;1.00
42841;DHT22;28491;46.898;7.660;2023-05-10T14:54:39;14.60;1.00
42841;DHT22;28491;46.898;7.660;2023-05-10T14:57:06;14.70;1.00
42841;DHT22;28491;46.898;7.660;2023-05-10T14:59:32;14.80;1.00
42841;DHT22;28491;46.898;7.660;2023-05-10T15:01:57;14.90;1.00
42841;DHT22;28491;46.898;7.660;2023-05-10T15:04:23;15.00;1.00
42841;DHT22;28491;46.898;7.660;2023-05-10T15:06:48;14.90;1.00
42841;DHT22;28491;46.898;7.660;2023-05-10T15:09:14;14.70;1.00
42841;DHT22;28491;46.898;7.660;2023-05-10T15:11:40;14.50;1.00
42841;DHT22;28491;46.898;7.660;2023-05-10T15:14:06;14.40;1.00
42841;DHT22;28491;46.898;7.660;2023-05-10T15:16:31;14.20;1.00
42841;DHT22;28491;46.898;7.660;2023-05-10T15:18:58;14.00;1.00
42841;DHT22;28491;46.898;7.660;2023-05-10T15:21:23;13.90;1.00
42841;DHT22;28491;46.898;7.660;2023-05-10T15:23:49;13.90;1.00
42841;DHT22;28491;46.898;7.660;2023-05-10T15:26:14;13.80;1.00
42841;DHT22;28491;46.898;7.660;2023-05-10T15:28:40;13.80;1.00
42841;DHT22;28491;46.898;7.660;2023-05-10T15:31:05;13.80;1.00
42841;DHT22;28491;46.898;7.660;2023-05-10T15:33:31;13.80;1.00
42841;DHT22;28491;46.898;7.660;2023-05-10T15:35:57;13.90;1.00
42841;DHT22;28491;46.898;7.660;2023-05-10T15:38:22;13.80;1.00
42841;DHT22;28491;46.898;7.660;2023-05-10T15:40:48;13.80;1.00
42841;DHT22;28491;46.898;7.660;2023-05-10T15:43:13;13.80;1.00
42841;DHT22;28491;46.898;7.660;2023-05-10T15:45:39;13.60;1.00
42841;DHT22;28491;46.898;7.660;2023-05-10T15:48:05;13.60;1.00
42841;DHT22;28491;46.898;7.660;2023-05-10T15:50:30;13.40;1.00
42841;DHT22;28491;46.898;7.660;2023-05-10T15:52:56;13.10;1.00
42841;DHT22;28491;46.898;7.660;2023-05-10T15:55:21;12.90;4.90
42841;DHT22;28491;46.898;7.660;2023-05-10T15:57:47;12.90;18.00
42841;DHT22;28491;46.898;7.660;2023-05-10T16:00:13;12.90;25.70
42841;DHT22;28491;46.898;7.660;2023-05-10T16:02:41;12.90;24.60